sensor_id;sensor_type;location;lat;lon;timestamp;P1;durP1;ratioP1;P2;durP2;ratioP2
79243;SDS011;68672;42.676;23.356;2023-05-10T00:01:00;4.50;;;3.17;;
79243;SDS011;68672;42.676;23.356;2023-05-10T00:03:29;5.72;;;4.32;;
79243;SDS011;68672;42.676;23.356;2023-05-10T00:05:55;5.03;;;3.30;;
79243;SDS011;68672;42.676;23.356;2023-05-10T00:08:23;4.85;;;3.17;;
79243;SDS011;68672;42.676;23.356;2023-05-10T00:10:49;3.28;;;2.97;;
79243;SDS011;68672;42.676;23.356;2023-05-10T00:13:14;5.10;;;3.58;;
79243;SDS011;68672;42.676;23.356;2023-05-10T00:15:43;5.45;;;3.97;;
79243;SDS011;68672;42.676;23.356;2023-05-10T00:18:08;6.00;;;4.45;;
79243;SDS011;68672;42.676;23.356;2023-05-10T00:20:34;4.97;;;3.63;;
79243;SDS011;68672;42.676;23.356;2023-05-10T00:23:02;5.28;;;4.15;;
79243;SDS011;68672;42.676;23.356;2023-05-10T00:25:28;6.30;;;3.78;;
79243;SDS011;68672;42.676;23.356;2023-05-10T00:27:53;5.28;;;3.95;;
79243;SDS011;68672;42.676;23.356;2023-05-10T00:30:20;4.78;;;4.13;;
79243;SDS011;68672;42.676;23.356;2023-05-10T00:32:45;6.90;;;4.65;;
79243;SDS011;68672;42.676;23.356;2023-05-10T00:35:13;6.50;;;4.53;;
79243;SDS011;68672;42.676;23.356;2023-05-10T00:37:38;5.85;;;3.85;;
79243;SDS011;68672;42.676;23.356;2023-05-10T00:40:04;5.78;;;4.88;;
79243;SDS011;68672;42.676;23.356;2023-05-10T00:42:30;6.97;;;4.30;;
79243;SDS011;68672;42.676;23.356;2023-05-10T00:44:56;4.28;;;3.88;;
79243;SDS011;68672;42.676;23.356;2023-05-10T00:47:23;6.40;;;4.28;;
79243;SDS011;68672;42.676;23.356;2023-05-10T00:49:52;6.18;;;4.60;;
79243;SDS011;68672;42.676;23.356;2023-05-10T00:52:17;5.25;;;4.00;;
79243;SDS011;68672;42.676;23.356;2023-05-10T00:54:43;5.82;;;4.93;;
79243;SDS011;68672;42.676;23.356;2023-05-10T00:57:09;5.40;;;4.25;;
79243;SDS011;68672;42.676;23.356;2023-05-10T00:59:34;4.93;;;4.38;;
79243;SDS011;68672;42.676;23.356;2023-05-10T01:02:01;5.95;;;4.38;;
79243;SDS011;68672;42.676;23.356;2023-05-10T01:04:27;5.43;;;4.35;;
79243;SDS011;68672;42.676;23.356;2023-05-10T01:06:53;6.40;;;4.10;;
79243;SDS011;68672;42.676;23.356;2023-05-10T01:09:19;7.90;;;4.95;;
79243;SDS011;68672;42.676;23.356;2023-05-10T01:11:46;4.97;;;4.05;;
79243;SDS011;68672;42.676;23.356;2023-05-10T01:14:16;5.50;;;4.53;;
79243;SDS011;68672;42.676;23.356;2023-05-10T01:16:44;5.13;;;4.30;;
79243;SDS011;68672;42.676;23.356;2023-05-10T01:19:19;6.47;;;4.57;;
79243;SDS011;68672;42.676;23.356;2023-05-10T01:21:53;7.10;;;4.70;;
79243;SDS011;68672;42.676;23.356;2023-05-10T01:24:51;5.90;;;4.15;;
79243;SDS011;68672;42.676;23.356;2023-05-10T01:41:13;4.95;;;4.05;;
79243;SDS011;68672;42.676;23.356;2023-05-10T01:43:44;4.22;;;3.40;;
79243;SDS011;68672;42.676;23.356;2023-05-10T01:46:17;4.13;;;3.72;;
79243;SDS011;68672;42.676;23.356;2023-05-10T01:48:51;5.65;;;3.95;;
79243;SDS011;68672;42.676;23.356;2023-05-10T01:51:23;6.72;;;4.60;;
79243;SDS011;68672;42.676;23.356;2023-05-10T01:53:54;5.45;;;3.90;;
79243;SDS011;68672;42.676;23.356;2023-05-10T01:56:25;5.47;;;3.88;;
79243;SDS011;68672;42.676;23.356;2023-05-10T01:58:55;4.93;;;3.97;;
79243;SDS011;68672;42.676;23.356;2023-05-10T02:01:22;6.10;;;4.30;;
79243;SDS011;68672;42.676;23.356;2023-05-10T02:03:49;4.80;;;4.15;;
79243;SDS011;68672;42.676;23.356;2023-05-10T02:06:16;4.07;;;3.60;;
79243;SDS011;68672;42.676;23.356;2023-05-10T02:08:44;4.72;;;3.60;;
79243;SDS011;68672;42.676;23.356;2023-05-10T02:11:14;3.45;;;2.80;;
79243;SDS011;68672;42.676;23.356;2023-05-10T02:13:41;5.00;;;3.83;;
79243;SDS011;68672;42.676;23.356;2023-05-10T02:16:11;3.75;;;3.03;;
79243;SDS011;68672;42.676;23.356;2023-05-10T02:18:39;3.55;;;3.03;;
79243;SDS011;68672;42.676;23.356;2023-05-10T02:21:06;4.18;;;3.38;;
79243;SDS011;68672;42.676;23.356;2023-05-10T02:23:34;5.32;;;3.47;;
79243;SDS011;68672;42.676;23.356;2023-05-10T02:26:00;4.97;;;2.83;;
79243;SDS011;68672;42.676;23.356;2023-05-10T02:28:26;4.60;;;3.33;;
79243;SDS011;68672;42.676;23.356;2023-05-10T02:30:54;3.83;;;3.25;;
79243;SDS011;68672;42.676;23.356;2023-05-10T02:33:20;5.38;;;3.40;;
79243;SDS011;68672;42.676;23.356;2023-05-10T02:35:47;4.43;;;3.50;;
79243;SDS011;68672;42.676;23.356;2023-05-10T02:38:16;2.85;;;2.55;;
79243;SDS011;68672;42.676;23.356;2023-05-10T02:40:45;4.70;;;3.65;;
79243;SDS011;68672;42.676;23.356;2023-05-10T02:43:13;3.75;;;3.13;;
79243;SDS011;68672;42.676;23.356;2023-05-10T02:45:40;3.45;;;3.10;;
79243;SDS011;68672;42.676;23.356;2023-05-10T02:48:07;4.03;;;3.08;;
79243;SDS011;68672;42.676;23.356;2023-05-10T02:50:33;3.40;;;2.83;;
79243;SDS011;68672;42.676;23.356;2023-05-10T02:53:01;5.32;;;3.15;;
79243;SDS011;68672;42.676;23.356;2023-05-10T02:55:36;4.28;;;3.42;;
79243;SDS011;68672;42.676;23.356;2023-05-10T02:58:04;3.90;;;3.35;;
79243;SDS011;68672;42.676;23.356;2023-05-10T03:00:29;4.68;;;2.92;;
79243;SDS011;68672;42.676;23.356;2023-05-10T03:02:54;5.47;;;2.97;;
79243;SDS011;68672;42.676;23.356;2023-05-10T03:05:20;3.67;;;3.30;;
79243;SDS011;68672;42.676;23.356;2023-05-10T03:07:46;4.82;;;3.50;;
79243;SDS011;68672;42.676;23.356;2023-05-10T03:10:12;3.83;;;2.67;;
79243;SDS011;68672;42.676;23.356;2023-05-10T03:18:23;4.32;;;3.70;;
79243;SDS011;68672;42.676;23.356;2023-05-10T03:21:11;4.63;;;3.17;;
79243;SDS011;68672;42.676;23.356;2023-05-10T03:24:01;4.68;;;3.47;;
79243;SDS011;68672;42.676;23.356;2023-05-10T03:26:33;5.57;;;4.25;;
79243;SDS011;68672;42.676;23.356;2023-05-10T03:29:00;4.00;;;2.97;;
79243;SDS011;68672;42.676;23.356;2023-05-10T03:31:26;3.95;;;3.25;;
79243;SDS011;68672;42.676;23.356;2023-05-10T03:33:52;3.88;;;3.35;;
79243;SDS011;68672;42.676;23.356;2023-05-10T03:36:18;5.20;;;3.72;;
79243;SDS011;68672;42.676;23.356;2023-05-10T03:38:44;4.32;;;3.13;;
79243;SDS011;68672;42.676;23.356;2023-05-10T03:41:10;3.83;;;3.42;;
79243;SDS011;68672;42.676;23.356;2023-05-10T03:43:36;4.38;;;3.40;;
79243;SDS011;68672;42.676;23.356;2023-05-10T03:46:19;3.67;;;3.30;;
79243;SDS011;68672;42.676;23.356;2023-05-10T03:48:45;6.43;;;2.90;;
79243;SDS011;68672;42.676;23.356;2023-05-10T03:51:10;5.28;;;3.60;;
79243;SDS011;68672;42.676;23.356;2023-05-10T03:53:35;5.10;;;3.22;;
79243;SDS011;68672;42.676;23.356;2023-05-10T03:56:01;4.07;;;3.38;;
79243;SDS011;68672;42.676;23.356;2023-05-10T03:58:26;5.22;;;2.92;;
79243;SDS011;68672;42.676;23.356;2023-05-10T04:00:52;4.03;;;3.53;;
79243;SDS011;68672;42.676;23.356;2023-05-10T04:03:17;4.53;;;3.72;;
79243;SDS011;68672;42.676;23.356;2023-05-10T04:05:43;6.97;;;4.07;;
79243;SDS011;68672;42.676;23.356;2023-05-10T04:08:11;4.03;;;3.00;;
79243;SDS011;68672;42.676;23.356;2023-05-10T04:10:37;4.28;;;3.17;;
79243;SDS011;68672;42.676;23.356;2023-05-10T04:13:02;4.40;;;4.00;;
79243;SDS011;68672;42.676;23.356;2023-05-10T04:15:30;5.25;;;4.03;;
79243;SDS011;68672;42.676;23.356;2023-05-10T04:17:56;5.88;;;4.32;;
79243;SDS011;68672;42.676;23.356;2023-05-10T04:20:21;4.10;;;3.45;;
79243;SDS011;68672;42.676;23.356;2023-05-10T04:22:49;4.10;;;3.10;;
79243;SDS011;68672;42.676;23.356;2023-05-10T04:25:15;5.55;;;3.67;;
79243;SDS011;68672;42.676;23.356;2023-05-10T04:27:40;5.47;;;4.88;;
79243;SDS011;68672;42.676;23.356;2023-05-10T04:30:08;5.43;;;4.32;;
79243;SDS011;68672;42.676;23.356;2023-05-10T04:32:34;4.97;;;4.07;;
79243;SDS011;68672;42.676;23.356;2023-05-10T04:35:02;4.68;;;3.58;;
79243;SDS011;68672;42.676;23.356;2023-05-10T04:37:29;6.35;;;4.72;;
79243;SDS011;68672;42.676;23.356;2023-05-10T04:39:55;5.20;;;4.00;;
79243;SDS011;68672;42.676;23.356;2023-05-10T04:42:20;5.22;;;3.63;;
79243;SDS011;68672;42.676;23.356;2023-05-10T04:44:48;5.55;;;4.10;;
79243;SDS011;68672;42.676;23.356;2023-05-10T04:47:14;6.95;;;3.80;;
79243;SDS011;68672;42.676;23.356;2023-05-10T04:49:39;7.32;;;4.32;;
79243;SDS011;68672;42.676;23.356;2023-05-10T04:52:04;6.18;;;4.30;;
79243;SDS011;68672;42.676;23.356;2023-05-10T04:54:30;6.60;;;4.55;;
79243;SDS011;68672;42.676;23.356;2023-05-10T04:56:55;7.63;;;4.50;;
79243;SDS011;68672;42.676;23.356;2023-05-10T04:59:21;6.40;;;4.22;;
79243;SDS011;68672;42.676;23.356;2023-05-10T05:01:46;5.10;;;4.03;;
79243;SDS011;68672;42.676;23.356;2023-05-10T05:04:12;4.85;;;3.92;;
79243;SDS011;68672;42.676;23.356;2023-05-10T05:06:37;5.10;;;3.72;;
79243;SDS011;68672;42.676;23.356;2023-05-10T05:09:02;4.72;;;3.70;;
79243;SDS011;68672;42.676;23.356;2023-05-10T05:11:28;5.82;;;3.90;;
79243;SDS011;68672;42.676;23.356;2023-05-10T05:13:56;5.55;;;3.55;;
79243;SDS011;68672;42.676;23.356;2023-05-10T05:16:24;6.00;;;3.75;;
79243;SDS011;68672;42.676;23.356;2023-05-10T05:18:50;4.28;;;3.60;;
79243;SDS011;68672;42.676;23.356;2023-05-10T05:21:27;5.20;;;4.22;;
79243;SDS011;68672;42.676;23.356;2023-05-10T05:23:53;4.63;;;4.22;;
79243;SDS011;68672;42.676;23.356;2023-05-10T05:26:19;6.68;;;3.88;;
79243;SDS011;68672;42.676;23.356;2023-05-10T05:28:44;4.80;;;4.20;;
79243;SDS011;68672;42.676;23.356;2023-05-10T05:31:13;5.75;;;4.38;;
79243;SDS011;68672;42.676;23.356;2023-05-10T05:33:39;6.95;;;4.93;;
79243;SDS011;68672;42.676;23.356;2023-05-10T05:36:04;5.60;;;4.00;;
79243;SDS011;68672;42.676;23.356;2023-05-10T05:38:30;8.20;;;4.78;;
79243;SDS011;68672;42.676;23.356;2023-05-10T05:40:56;5.18;;;4.68;;
79243;SDS011;68672;42.676;23.356;2023-05-10T05:43:22;5.53;;;4.65;;
79243;SDS011;68672;42.676;23.356;2023-05-10T05:45:48;7.65;;;4.35;;
79243;SDS011;68672;42.676;23.356;2023-05-10T05:48:13;5.00;;;4.50;;
79243;SDS011;68672;42.676;23.356;2023-05-10T05:50:41;6.40;;;4.05;;
79243;SDS011;68672;42.676;23.356;2023-05-10T05:53:07;4.80;;;4.00;;
79243;SDS011;68672;42.676;23.356;2023-05-10T05:55:33;7.00;;;4.25;;
79243;SDS011;68672;42.676;23.356;2023-05-10T05:57:59;5.80;;;4.25;;
79243;SDS011;68672;42.676;23.356;2023-05-10T06:00:24;6.25;;;4.40;;
79243;SDS011;68672;42.676;23.356;2023-05-10T06:02:50;4.38;;;3.75;;
79243;SDS011;68672;42.676;23.356;2023-05-10T06:05:16;4.38;;;3.92;;
79243;SDS011;68672;42.676;23.356;2023-05-10T06:07:45;6.10;;;5.10;;
79243;SDS011;68672;42.676;23.356;2023-05-10T06:10:11;4.88;;;3.60;;
79243;SDS011;68672;42.676;23.356;2023-05-10T06:12:36;6.53;;;4.28;;
79243;SDS011;68672;42.676;23.356;2023-05-10T06:15:02;7.32;;;5.15;;
79243;SDS011;68672;42.676;23.356;2023-05-10T06:17:28;7.10;;;5.32;;
79243;SDS011;68672;42.676;23.356;2023-05-10T06:19:53;6.65;;;4.82;;
79243;SDS011;68672;42.676;23.356;2023-05-10T06:22:19;7.03;;;4.05;;
79243;SDS011;68672;42.676;23.356;2023-05-10T06:24:44;5.05;;;4.28;;
79243;SDS011;68672;42.676;23.356;2023-05-10T06:27:13;5.72;;;4.45;;
79243;SDS011;68672;42.676;23.356;2023-05-10T06:29:38;6.75;;;4.82;;
79243;SDS011;68672;42.676;23.356;2023-05-10T06:32:04;5.30;;;3.70;;
79243;SDS011;68672;42.676;23.356;2023-05-10T06:34:29;5.40;;;4.50;;
79243;SDS011;68672;42.676;23.356;2023-05-10T06:36:54;5.43;;;3.88;;
79243;SDS011;68672;42.676;23.356;2023-05-10T06:39:20;4.28;;;3.45;;
79243;SDS011;68672;42.676;23.356;2023-05-10T06:41:45;4.57;;;3.95;;
79243;SDS011;68672;42.676;23.356;2023-05-10T06:44:11;6.13;;;4.35;;
79243;SDS011;68672;42.676;23.356;2023-05-10T06:46:37;10.32;;;4.30;;
79243;SDS011;68672;42.676;23.356;2023-05-10T06:49:03;4.53;;;3.70;;
79243;SDS011;68672;42.676;23.356;2023-05-10T06:51:29;7.63;;;4.95;;
79243;SDS011;68672;42.676;23.356;2023-05-10T06:53:57;5.32;;;3.35;;
79243;SDS011;68672;42.676;23.356;2023-05-10T06:56:22;4.78;;;3.38;;
79243;SDS011;68672;42.676;23.356;2023-05-10T06:58:48;5.00;;;4.13;;
79243;SDS011;68672;42.676;23.356;2023-05-10T07:01:13;4.65;;;3.67;;
79243;SDS011;68672;42.676;23.356;2023-05-10T07:03:38;4.97;;;3.92;;
79243;SDS011;68672;42.676;23.356;2023-05-10T07:06:04;4.90;;;3.58;;
79243;SDS011;68672;42.676;23.356;2023-05-10T07:08:33;4.80;;;3.85;;
79243;SDS011;68672;42.676;23.356;2023-05-10T07:11:02;6.22;;;3.80;;
79243;SDS011;68672;42.676;23.356;2023-05-10T07:13:32;6.45;;;4.32;;
79243;SDS011;68672;42.676;23.356;2023-05-10T07:15:58;4.72;;;3.83;;
79243;SDS011;68672;42.676;23.356;2023-05-10T07:18:24;5.90;;;4.50;;
79243;SDS011;68672;42.676;23.356;2023-05-10T07:20:50;6.72;;;5.07;;
79243;SDS011;68672;42.676;23.356;2023-05-10T07:23:25;5.88;;;4.22;;
79243;SDS011;68672;42.676;23.356;2023-05-10T07:25:50;5.18;;;4.32;;
79243;SDS011;68672;42.676;23.356;2023-05-10T07:28:19;4.97;;;4.13;;
79243;SDS011;68672;42.676;23.356;2023-05-10T07:30:45;5.95;;;4.93;;
79243;SDS011;68672;42.676;23.356;2023-05-10T07:33:12;4.40;;;3.90;;
79243;SDS011;68672;42.676;23.356;2023-05-10T07:35:38;5.78;;;4.03;;
79243;SDS011;68672;42.676;23.356;2023-05-10T07:38:03;8.13;;;5.35;;
79243;SDS011;68672;42.676;23.356;2023-05-10T07:40:29;9.60;;;4.85;;
79243;SDS011;68672;42.676;23.356;2023-05-10T07:42:55;5.65;;;4.32;;
79243;SDS011;68672;42.676;23.356;2023-05-10T07:45:21;5.43;;;3.97;;
79243;SDS011;68672;42.676;23.356;2023-05-10T07:47:47;5.43;;;4.28;;
79243;SDS011;68672;42.676;23.356;2023-05-10T07:50:12;5.28;;;4.38;;
79243;SDS011;68672;42.676;23.356;2023-05-10T07:52:38;9.02;;;5.13;;
79243;SDS011;68672;42.676;23.356;2023-05-10T07:55:03;5.55;;;3.97;;
79243;SDS011;68672;42.676;23.356;2023-05-10T07:57:29;4.65;;;3.78;;
79243;SDS011;68672;42.676;23.356;2023-05-10T07:59:55;8.13;;;5.15;;
79243;SDS011;68672;42.676;23.356;2023-05-10T08:02:21;7.03;;;4.57;;
79243;SDS011;68672;42.676;23.356;2023-05-10T08:04:46;6.13;;;5.20;;
79243;SDS011;68672;42.676;23.356;2023-05-10T08:07:11;6.70;;;4.72;;
79243;SDS011;68672;42.676;23.356;2023-05-10T08:09:37;5.70;;;5.03;;
79243;SDS011;68672;42.676;23.356;2023-05-10T08:12:02;7.10;;;5.38;;
79243;SDS011;68672;42.676;23.356;2023-05-10T08:14:28;6.72;;;4.75;;
79243;SDS011;68672;42.676;23.356;2023-05-10T08:16:54;7.45;;;4.45;;
79243;SDS011;68672;42.676;23.356;2023-05-10T08:19:25;8.07;;;4.28;;
79243;SDS011;68672;42.676;23.356;2023-05-10T08:21:51;8.02;;;5.40;;
79243;SDS011;68672;42.676;23.356;2023-05-10T08:24:16;6.78;;;4.82;;
79243;SDS011;68672;42.676;23.356;2023-05-10T08:26:44;7.10;;;5.25;;
79243;SDS011;68672;42.676;23.356;2023-05-10T08:29:10;5.22;;;4.65;;
79243;SDS011;68672;42.676;23.356;2023-05-10T08:31:35;6.47;;;4.82;;
79243;SDS011;68672;42.676;23.356;2023-05-10T08:34:00;7.40;;;5.25;;
79243;SDS011;68672;42.676;23.356;2023-05-10T08:36:26;5.32;;;4.75;;
79243;SDS011;68672;42.676;23.356;2023-05-10T08:38:53;5.40;;;4.88;;
79243;SDS011;68672;42.676;23.356;2023-05-10T08:41:22;6.03;;;5.03;;
79243;SDS011;68672;42.676;23.356;2023-05-10T08:43:54;6.07;;;5.10;;
79243;SDS011;68672;42.676;23.356;2023-05-10T08:46:22;7.20;;;5.28;;
79243;SDS011;68672;42.676;23.356;2023-05-10T08:48:49;7.68;;;5.07;;
79243;SDS011;68672;42.676;23.356;2023-05-10T08:51:22;7.13;;;5.75;;
79243;SDS011;68672;42.676;23.356;2023-05-10T08:53:51;6.88;;;5.20;;
79243;SDS011;68672;42.676;23.356;2023-05-10T08:56:17;6.60;;;5.32;;
79243;SDS011;68672;42.676;23.356;2023-05-10T08:58:42;6.72;;;5.32;;
79243;SDS011;68672;42.676;23.356;2023-05-10T09:01:08;7.55;;;5.22;;
79243;SDS011;68672;42.676;23.356;2023-05-10T09:03:35;6.30;;;5.30;;
79243;SDS011;68672;42.676;23.356;2023-05-10T09:06:03;6.03;;;5.05;;
79243;SDS011;68672;42.676;23.356;2023-05-10T09:08:30;5.65;;;5.07;;
79243;SDS011;68672;42.676;23.356;2023-05-10T09:10:56;6.90;;;5.38;;
79243;SDS011;68672;42.676;23.356;2023-05-10T09:13:24;6.88;;;5.57;;
79243;SDS011;68672;42.676;23.356;2023-05-10T09:15:53;5.68;;;4.63;;
79243;SDS011;68672;42.676;23.356;2023-05-10T09:18:19;7.18;;;5.65;;
79243;SDS011;68672;42.676;23.356;2023-05-10T09:20:44;5.28;;;4.78;;
79243;SDS011;68672;42.676;23.356;2023-05-10T09:23:10;6.93;;;5.60;;
79243;SDS011;68672;42.676;23.356;2023-05-10T09:25:35;6.78;;;5.00;;
79243;SDS011;68672;42.676;23.356;2023-05-10T09:28:05;4.53;;;4.07;;
79243;SDS011;68672;42.676;23.356;2023-05-10T09:30:34;6.93;;;4.95;;
79243;SDS011;68672;42.676;23.356;2023-05-10T09:33:00;7.43;;;4.65;;
79243;SDS011;68672;42.676;23.356;2023-05-10T09:35:27;6.53;;;5.57;;
79243;SDS011;68672;42.676;23.356;2023-05-10T09:37:54;6.22;;;5.30;;
79243;SDS011;68672;42.676;23.356;2023-05-10T09:40:21;7.22;;;5.25;;
79243;SDS011;68672;42.676;23.356;2023-05-10T09:42:58;6.78;;;4.55;;
79243;SDS011;68672;42.676;23.356;2023-05-10T09:45:29;8.20;;;5.88;;
79243;SDS011;68672;42.676;23.356;2023-05-10T09:47:55;7.05;;;5.95;;
79243;SDS011;68672;42.676;23.356;2023-05-10T09:50:21;7.38;;;5.72;;
79243;SDS011;68672;42.676;23.356;2023-05-10T09:55:25;6.32;;;4.78;;
79243;SDS011;68672;42.676;23.356;2023-05-10T09:58:04;7.18;;;6.15;;
79243;SDS011;68672;42.676;23.356;2023-05-10T10:00:35;8.27;;;5.72;;
79243;SDS011;68672;42.676;23.356;2023-05-10T10:03:02;6.18;;;5.50;;
79243;SDS011;68672;42.676;23.356;2023-05-10T10:05:29;6.07;;;5.35;;
79243;SDS011;68672;42.676;23.356;2023-05-10T10:08:04;8.50;;;5.70;;
79243;SDS011;68672;42.676;23.356;2023-05-10T10:10:31;8.07;;;6.07;;
79243;SDS011;68672;42.676;23.356;2023-05-10T10:12:57;7.28;;;6.03;;
79243;SDS011;68672;42.676;23.356;2023-05-10T10:15:23;6.90;;;5.47;;
79243;SDS011;68672;42.676;23.356;2023-05-10T10:17:52;6.70;;;6.03;;
79243;SDS011;68672;42.676;23.356;2023-05-10T10:20:19;7.72;;;4.95;;
79243;SDS011;68672;42.676;23.356;2023-05-10T10:22:46;6.93;;;5.70;;
79243;SDS011;68672;42.676;23.356;2023-05-10T10:25:12;5.50;;;4.30;;
79243;SDS011;68672;42.676;23.356;2023-05-10T10:36:00;6.00;;;4.43;;
79243;SDS011;68672;42.676;23.356;2023-05-10T10:38:35;7.43;;;5.25;;
79243;SDS011;68672;42.676;23.356;2023-05-10T10:41:04;4.90;;;4.10;;
79243;SDS011;68672;42.676;23.356;2023-05-10T10:43:34;5.60;;;4.88;;
79243;SDS011;68672;42.676;23.356;2023-05-10T10:46:18;5.38;;;4.45;;
79243;SDS011;68672;42.676;23.356;2023-05-10T10:48:47;4.43;;;4.03;;
79243;SDS011;68672;42.676;23.356;2023-05-10T10:51:14;4.93;;;3.80;;
79243;SDS011;68672;42.676;23.356;2023-05-10T10:53:40;5.15;;;4.22;;
79243;SDS011;68672;42.676;23.356;2023-05-10T10:56:09;6.07;;;4.32;;
79243;SDS011;68672;42.676;23.356;2023-05-10T10:58:37;5.47;;;4.75;;
79243;SDS011;68672;42.676;23.356;2023-05-10T11:01:36;6.50;;;4.88;;
79243;SDS011;68672;42.676;23.356;2023-05-10T11:06:36;4.72;;;4.20;;
79243;SDS011;68672;42.676;23.356;2023-05-10T11:09:05;4.88;;;4.20;;
79243;SDS011;68672;42.676;23.356;2023-05-10T11:11:34;4.97;;;4.10;;
79243;SDS011;68672;42.676;23.356;2023-05-10T11:14:07;5.30;;;4.38;;
79243;SDS011;68672;42.676;23.356;2023-05-10T11:16:45;6.00;;;4.25;;
79243;SDS011;68672;42.676;23.356;2023-05-10T11:19:11;5.05;;;4.00;;
79243;SDS011;68672;42.676;23.356;2023-05-10T11:21:48;6.13;;;4.22;;
79243;SDS011;68672;42.676;23.356;2023-05-10T11:24:16;7.32;;;4.85;;
79243;SDS011;68672;42.676;23.356;2023-05-10T11:26:43;7.10;;;4.07;;
79243;SDS011;68672;42.676;23.356;2023-05-10T11:29:09;5.95;;;4.45;;
79243;SDS011;68672;42.676;23.356;2023-05-10T11:31:34;5.03;;;4.28;;
79243;SDS011;68672;42.676;23.356;2023-05-10T11:34:00;6.85;;;4.35;;
79243;SDS011;68672;42.676;23.356;2023-05-10T11:36:35;5.85;;;4.25;;
79243;SDS011;68672;42.676;23.356;2023-05-10T11:39:02;4.53;;;4.10;;
79243;SDS011;68672;42.676;23.356;2023-05-10T11:41:28;5.95;;;5.35;;
79243;SDS011;68672;42.676;23.356;2023-05-10T11:44:00;5.75;;;4.28;;
79243;SDS011;68672;42.676;23.356;2023-05-10T11:46:27;5.35;;;4.05;;
79243;SDS011;68672;42.676;23.356;2023-05-10T11:48:55;5.70;;;4.38;;
79243;SDS011;68672;42.676;23.356;2023-05-10T11:51:23;7.22;;;5.00;;
79243;SDS011;68672;42.676;23.356;2023-05-10T11:53:50;6.80;;;4.75;;
79243;SDS011;68672;42.676;23.356;2023-05-10T11:56:18;6.05;;;4.70;;
79243;SDS011;68672;42.676;23.356;2023-05-10T11:58:43;5.65;;;4.57;;
79243;SDS011;68672;42.676;23.356;2023-05-10T12:01:09;7.78;;;4.78;;
79243;SDS011;68672;42.676;23.356;2023-05-10T12:03:35;6.65;;;4.60;;
79243;SDS011;68672;42.676;23.356;2023-05-10T12:06:02;5.05;;;4.35;;
79243;SDS011;68672;42.676;23.356;2023-05-10T12:08:29;7.47;;;5.05;;
79243;SDS011;68672;42.676;23.356;2023-05-10T12:11:08;6.22;;;4.43;;
79243;SDS011;68672;42.676;23.356;2023-05-10T12:13:38;6.13;;;3.60;;
79243;SDS011;68672;42.676;23.356;2023-05-10T12:16:18;9.73;;;4.28;;
79243;SDS011;68672;42.676;23.356;2023-05-10T12:18:48;5.90;;;4.85;;
79243;SDS011;68672;42.676;23.356;2023-05-10T12:21:16;4.32;;;3.58;;
79243;SDS011;68672;42.676;23.356;2023-05-10T12:23:41;6.10;;;4.80;;
79243;SDS011;68672;42.676;23.356;2023-05-10T12:26:09;6.82;;;4.13;;
79243;SDS011;68672;42.676;23.356;2023-05-10T12:28:35;6.25;;;5.50;;
79243;SDS011;68672;42.676;23.356;2023-05-10T12:31:01;6.25;;;4.63;;
79243;SDS011;68672;42.676;23.356;2023-05-10T12:33:34;4.45;;;3.72;;
79243;SDS011;68672;42.676;23.356;2023-05-10T12:36:02;5.43;;;4.82;;
79243;SDS011;68672;42.676;23.356;2023-05-10T12:38:28;6.82;;;5.18;;
79243;SDS011;68672;42.676;23.356;2023-05-10T12:40:59;5.93;;;4.43;;
79243;SDS011;68672;42.676;23.356;2023-05-10T12:43:25;6.22;;;4.72;;
79243;SDS011;68672;42.676;23.356;2023-05-10T12:45:54;4.07;;;3.08;;
79243;SDS011;68672;42.676;23.356;2023-05-10T12:48:22;5.05;;;3.75;;
79243;SDS011;68672;42.676;23.356;2023-05-10T12:50:48;5.43;;;4.40;;
79243;SDS011;68672;42.676;23.356;2023-05-10T12:53:13;8.95;;;5.10;;
79243;SDS011;68672;42.676;23.356;2023-05-10T12:55:40;4.80;;;3.75;;
79243;SDS011;68672;42.676;23.356;2023-05-10T12:58:06;5.78;;;3.80;;
79243;SDS011;68672;42.676;23.356;2023-05-10T13:00:32;5.15;;;3.75;;
79243;SDS011;68672;42.676;23.356;2023-05-10T13:02:57;5.00;;;4.07;;
79243;SDS011;68672;42.676;23.356;2023-05-10T13:05:22;7.68;;;4.53;;
79243;SDS011;68672;42.676;23.356;2023-05-10T13:07:48;5.35;;;3.83;;
79243;SDS011;68672;42.676;23.356;2023-05-10T13:10:13;5.32;;;4.25;;
79243;SDS011;68672;42.676;23.356;2023-05-10T13:12:39;7.25;;;4.50;;
79243;SDS011;68672;42.676;23.356;2023-05-10T13:15:04;5.13;;;4.53;;
79243;SDS011;68672;42.676;23.356;2023-05-10T13:17:31;8.00;;;5.25;;
79243;SDS011;68672;42.676;23.356;2023-05-10T13:19:57;6.95;;;4.65;;
79243;SDS011;68672;42.676;23.356;2023-05-10T13:22:22;5.30;;;3.75;;
79243;SDS011;68672;42.676;23.356;2023-05-10T13:24:47;5.35;;;3.75;;
79243;SDS011;68672;42.676;23.356;2023-05-10T13:27:13;6.72;;;4.13;;
79243;SDS011;68672;42.676;23.356;2023-05-10T13:29:38;4.82;;;3.85;;
79243;SDS011;68672;42.676;23.356;2023-05-10T13:32:04;5.97;;;3.95;;
79243;SDS011;68672;42.676;23.356;2023-05-10T13:34:29;5.30;;;3.85;;
79243;SDS011;68672;42.676;23.356;2023-05-10T13:36:55;5.05;;;4.47;;
79243;SDS011;68672;42.676;23.356;2023-05-10T13:39:23;11.02;;;4.80;;
79243;SDS011;68672;42.676;23.356;2023-05-10T13:41:49;5.97;;;4.30;;
79243;SDS011;68672;42.676;23.356;2023-05-10T13:44:17;4.88;;;3.80;;
79243;SDS011;68672;42.676;23.356;2023-05-10T13:46:44;4.25;;;3.60;;
79243;SDS011;68672;42.676;23.356;2023-05-10T13:49:13;6.70;;;4.70;;
79243;SDS011;68672;42.676;23.356;2023-05-10T13:51:38;5.43;;;4.63;;
79243;SDS011;68672;42.676;23.356;2023-05-10T13:54:04;4.97;;;3.88;;
79243;SDS011;68672;42.676;23.356;2023-05-10T13:56:29;5.45;;;4.60;;
79243;SDS011;68672;42.676;23.356;2023-05-10T13:58:58;4.30;;;3.53;;
79243;SDS011;68672;42.676;23.356;2023-05-10T14:01:24;4.63;;;3.75;;
79243;SDS011;68672;42.676;23.356;2023-05-10T14:03:49;4.47;;;3.78;;
79243;SDS011;68672;42.676;23.356;2023-05-10T14:06:15;5.63;;;4.82;;
79243;SDS011;68672;42.676;23.356;2023-05-10T14:08:45;4.90;;;4.13;;
79243;SDS011;68672;42.676;23.356;2023-05-10T14:11:11;6.07;;;4.03;;
79243;SDS011;68672;42.676;23.356;2023-05-10T14:13:36;5.70;;;4.05;;
79243;SDS011;68672;42.676;23.356;2023-05-10T14:16:02;5.80;;;4.28;;
79243;SDS011;68672;42.676;23.356;2023-05-10T14:18:27;5.97;;;4.00;;
79243;SDS011;68672;42.676;23.356;2023-05-10T14:20:53;6.88;;;4.07;;
79243;SDS011;68672;42.676;23.356;2023-05-10T14:23:19;5.25;;;4.35;;
79243;SDS011;68672;42.676;23.356;2023-05-10T14:25:49;6.30;;;3.67;;
79243;SDS011;68672;42.676;23.356;2023-05-10T14:28:16;7.57;;;4.00;;
79243;SDS011;68672;42.676;23.356;2023-05-10T14:30:43;6.03;;;4.13;;
79243;SDS011;68672;42.676;23.356;2023-05-10T14:33:08;5.13;;;3.65;;
79243;SDS011;68672;42.676;23.356;2023-05-10T14:35:34;6.40;;;4.03;;
79243;SDS011;68672;42.676;23.356;2023-05-10T14:38:00;6.25;;;4.32;;
79243;SDS011;68672;42.676;23.356;2023-05-10T14:40:25;5.90;;;3.35;;
79243;SDS011;68672;42.676;23.356;2023-05-10T14:42:51;4.82;;;3.78;;
79243;SDS011;68672;42.676;23.356;2023-05-10T14:45:20;4.43;;;3.60;;
79243;SDS011;68672;42.676;23.356;2023-05-10T14:47:46;4.93;;;4.35;;
79243;SDS011;68672;42.676;23.356;2023-05-10T14:50:11;5.90;;;4.05;;
79243;SDS011;68672;42.676;23.356;2023-05-10T14:52:37;5.03;;;4.38;;
79243;SDS011;68672;42.676;23.356;2023-05-10T14:55:02;6.28;;;4.88;;
79243;SDS011;68672;42.676;23.356;2023-05-10T14:57:31;7.93;;;4.38;;
79243;SDS011;68672;42.676;23.356;2023-05-10T14:59:57;6.93;;;4.40;;
79243;SDS011;68672;42.676;23.356;2023-05-10T15:02:25;6.70;;;4.78;;
79243;SDS011;68672;42.676;23.356;2023-05-10T15:04:51;4.60;;;4.07;;
79243;SDS011;68672;42.676;23.356;2023-05-10T15:07:16;4.35;;;3.85;;